sensor_id;sensor_type;location;lat;lon;timestamp;P1;durP1;ratioP1;P2;durP2;ratioP2
64653;SDS011;51065;48.884;12.598;2023-10-19T00:01:09;18.55;;;8.45;;
64653;SDS011;51065;48.884;12.598;2023-10-19T00:03:35;17.35;;;8.35;;
64653;SDS011;51065;48.884;12.598;2023-10-19T00:06:01;17.05;;;8.15;;
64653;SDS011;51065;48.884;12.598;2023-10-19T00:08:26;19.05;;;8.95;;
64653;SDS011;51065;48.884;12.598;2023-10-19T00:11:01;19.08;;;8.10;;
64653;SDS011;51065;48.884;12.598;2023-10-19T00:13:30;17.60;;;7.90;;
64653;SDS011;51065;48.884;12.598;2023-10-19T00:15:56;18.65;;;8.55;;
64653;SDS011;51065;48.884;12.598;2023-10-19T00:18:24;16.02;;;7.50;;
64653;SDS011;51065;48.884;12.598;2023-10-19T00:20:51;20.17;;;8.57;;
64653;SDS011;51065;48.884;12.598;2023-10-19T00:23:18;17.90;;;8.48;;
64653;SDS011;51065;48.884;12.598;2023-10-19T00:25:53;17.10;;;7.85;;
64653;SDS011;51065;48.884;12.598;2023-10-19T00:28:23;18.13;;;7.57;;
64653;SDS011;51065;48.884;12.598;2023-10-19T00:30:53;17.50;;;7.65;;
64653;SDS011;51065;48.884;12.598;2023-10-19T00:33:24;19.35;;;7.72;;
64653;SDS011;51065;48.884;12.598;2023-10-19T00:35:53;18.67;;;8.18;;
64653;SDS011;51065;48.884;12.598;2023-10-19T00:38:26;18.13;;;7.18;;
64653;SDS011;51065;48.884;12.598;2023-10-19T00:40:55;18.58;;;8.23;;
64653;SDS011;51065;48.884;12.598;2023-10-19T00:43:30;18.15;;;8.32;;
64653;SDS011;51065;48.884;12.598;2023-10-19T00:46:01;19.27;;;8.60;;
64653;SDS011;51065;48.884;12.598;2023-10-19T00:48:29;18.00;;;7.88;;
64653;SDS011;51065;48.884;12.598;2023-10-19T00:50:55;17.88;;;8.40;;
64653;SDS011;51065;48.884;12.598;2023-10-19T00:53:35;19.02;;;7.70;;
64653;SDS011;51065;48.884;12.598;2023-10-19T00:56:03;18.60;;;7.53;;
64653;SDS011;51065;48.884;12.598;2023-10-19T00:58:31;17.90;;;7.57;;
64653;SDS011;51065;48.884;12.598;2023-10-19T01:01:01;18.08;;;8.40;;
64653;SDS011;51065;48.884;12.598;2023-10-19T01:03:31;15.63;;;7.07;;
64653;SDS011;51065;48.884;12.598;2023-10-19T01:06:00;18.15;;;7.82;;
64653;SDS011;51065;48.884;12.598;2023-10-19T01:08:30;17.95;;;7.80;;
64653;SDS011;51065;48.884;12.598;2023-10-19T01:11:04;14.73;;;7.03;;
64653;SDS011;51065;48.884;12.598;2023-10-19T01:13:30;19.63;;;8.15;;
64653;SDS011;51065;48.884;12.598;2023-10-19T01:15:59;19.02;;;8.43;;
64653;SDS011;51065;48.884;12.598;2023-10-19T01:18:25;17.25;;;7.57;;
64653;SDS011;51065;48.884;12.598;2023-10-19T01:20:57;14.40;;;6.65;;
64653;SDS011;51065;48.884;12.598;2023-10-19T01:23:27;17.13;;;7.22;;
64653;SDS011;51065;48.884;12.598;2023-10-19T01:25:56;15.20;;;6.90;;
64653;SDS011;51065;48.884;12.598;2023-10-19T01:28:33;16.27;;;6.95;;
64653;SDS011;51065;48.884;12.598;2023-10-19T01:31:07;17.20;;;7.57;;
64653;SDS011;51065;48.884;12.598;2023-10-19T01:33:41;15.40;;;7.20;;
64653;SDS011;51065;48.884;12.598;2023-10-19T01:36:08;17.27;;;8.15;;
64653;SDS011;51065;48.884;12.598;2023-10-19T01:38:41;16.25;;;7.18;;
64653;SDS011;51065;48.884;12.598;2023-10-19T01:41:07;15.80;;;6.80;;
64653;SDS011;51065;48.884;12.598;2023-10-19T01:43:37;15.13;;;7.07;;
64653;SDS011;51065;48.884;12.598;2023-10-19T01:46:05;14.88;;;6.82;;
64653;SDS011;51065;48.884;12.598;2023-10-19T01:48:36;14.48;;;6.85;;
64653;SDS011;51065;48.884;12.598;2023-10-19T01:51:06;15.52;;;6.97;;
64653;SDS011;51065;48.884;12.598;2023-10-19T01:53:35;17.45;;;7.45;;
64653;SDS011;51065;48.884;12.598;2023-10-19T01:56:04;14.38;;;6.65;;
64653;SDS011;51065;48.884;12.598;2023-10-19T01:58:34;16.85;;;7.07;;
64653;SDS011;51065;48.884;12.598;2023-10-19T02:01:03;16.15;;;6.80;;
64653;SDS011;51065;48.884;12.598;2023-10-19T02:03:54;14.88;;;6.68;;
64653;SDS011;51065;48.884;12.598;2023-10-19T02:06:24;17.08;;;7.00;;
64653;SDS011;51065;48.884;12.598;2023-10-19T02:09:03;18.33;;;6.75;;
64653;SDS011;51065;48.884;12.598;2023-10-19T02:11:44;14.68;;;6.75;;
64653;SDS011;51065;48.884;12.598;2023-10-19T02:14:11;14.32;;;6.57;;
64653;SDS011;51065;48.884;12.598;2023-10-19T02:16:41;13.50;;;5.88;;
64653;SDS011;51065;48.884;12.598;2023-10-19T02:19:09;13.77;;;6.65;;
64653;SDS011;51065;48.884;12.598;2023-10-19T02:21:35;14.45;;;6.72;;
64653;SDS011;51065;48.884;12.598;2023-10-19T02:24:12;14.35;;;6.03;;
64653;SDS011;51065;48.884;12.598;2023-10-19T02:26:39;17.10;;;6.80;;
64653;SDS011;51065;48.884;12.598;2023-10-19T02:29:06;15.27;;;7.10;;
64653;SDS011;51065;48.884;12.598;2023-10-19T02:31:39;15.82;;;7.03;;
64653;SDS011;51065;48.884;12.598;2023-10-19T02:36:32;12.82;;;5.93;;
64653;SDS011;51065;48.884;12.598;2023-10-19T02:38:59;13.73;;;6.20;;
64653;SDS011;51065;48.884;12.598;2023-10-19T02:41:36;13.20;;;6.03;;
64653;SDS011;51065;48.884;12.598;2023-10-19T02:44:23;15.30;;;6.43;;
64653;SDS011;51065;48.884;12.598;2023-10-19T02:46:54;15.68;;;7.10;;
64653;SDS011;51065;48.884;12.598;2023-10-19T02:49:24;15.88;;;7.22;;
64653;SDS011;51065;48.884;12.598;2023-10-19T02:51:51;14.55;;;7.18;;
64653;SDS011;51065;48.884;12.598;2023-10-19T02:54:19;14.82;;;6.60;;
64653;SDS011;51065;48.884;12.598;2023-10-19T02:56:47;16.00;;;7.35;;
64653;SDS011;51065;48.884;12.598;2023-10-19T02:59:18;16.60;;;7.82;;
64653;SDS011;51065;48.884;12.598;2023-10-19T03:01:48;15.30;;;7.05;;
64653;SDS011;51065;48.884;12.598;2023-10-19T03:04:42;15.30;;;6.70;;
64653;SDS011;51065;48.884;12.598;2023-10-19T03:07:08;14.85;;;7.53;;
64653;SDS011;51065;48.884;12.598;2023-10-19T03:09:38;16.92;;;7.63;;
64653;SDS011;51065;48.884;12.598;2023-10-19T03:12:13;14.63;;;7.18;;
64653;SDS011;51065;48.884;12.598;2023-10-19T03:14:39;16.33;;;7.45;;
64653;SDS011;51065;48.884;12.598;2023-10-19T03:17:08;14.45;;;6.15;;
64653;SDS011;51065;48.884;12.598;2023-10-19T03:19:35;14.85;;;7.20;;
64653;SDS011;51065;48.884;12.598;2023-10-19T03:22:01;14.95;;;6.72;;
64653;SDS011;51065;48.884;12.598;2023-10-19T03:24:30;15.05;;;7.13;;
64653;SDS011;51065;48.884;12.598;2023-10-19T03:27:03;14.25;;;6.93;;
64653;SDS011;51065;48.884;12.598;2023-10-19T03:29:37;15.25;;;6.57;;
64653;SDS011;51065;48.884;12.598;2023-10-19T03:32:04;15.63;;;7.53;;
64653;SDS011;51065;48.884;12.598;2023-10-19T03:34:31;15.38;;;7.35;;
64653;SDS011;51065;48.884;12.598;2023-10-19T03:36:57;14.88;;;7.10;;
64653;SDS011;51065;48.884;12.598;2023-10-19T03:39:31;15.10;;;7.22;;
64653;SDS011;51065;48.884;12.598;2023-10-19T03:41:59;15.90;;;7.35;;
64653;SDS011;51065;48.884;12.598;2023-10-19T03:44:26;16.42;;;8.00;;
64653;SDS011;51065;48.884;12.598;2023-10-19T03:46:51;15.95;;;7.43;;
64653;SDS011;51065;48.884;12.598;2023-10-19T03:49:22;14.75;;;7.63;;
64653;SDS011;51065;48.884;12.598;2023-10-19T03:51:55;16.45;;;7.53;;
64653;SDS011;51065;48.884;12.598;2023-10-19T03:54:25;15.93;;;7.73;;
64653;SDS011;51065;48.884;12.598;2023-10-19T03:56:52;17.42;;;7.38;;
64653;SDS011;51065;48.884;12.598;2023-10-19T03:59:17;14.93;;;7.50;;
64653;SDS011;51065;48.884;12.598;2023-10-19T04:01:43;18.58;;;7.60;;
64653;SDS011;51065;48.884;12.598;2023-10-19T04:04:10;13.93;;;7.03;;
64653;SDS011;51065;48.884;12.598;2023-10-19T04:06:36;13.73;;;7.40;;
64653;SDS011;51065;48.884;12.598;2023-10-19T04:09:05;16.40;;;7.55;;
64653;SDS011;51065;48.884;12.598;2023-10-19T04:11:31;16.23;;;7.88;;
64653;SDS011;51065;48.884;12.598;2023-10-19T04:13:58;17.88;;;7.72;;
64653;SDS011;51065;48.884;12.598;2023-10-19T04:16:28;18.13;;;8.55;;
64653;SDS011;51065;48.884;12.598;2023-10-19T04:18:56;15.50;;;7.88;;
64653;SDS011;51065;48.884;12.598;2023-10-19T04:21:22;16.23;;;7.22;;
64653;SDS011;51065;48.884;12.598;2023-10-19T04:23:48;16.90;;;7.35;;
64653;SDS011;51065;48.884;12.598;2023-10-19T04:26:14;16.80;;;7.50;;
64653;SDS011;51065;48.884;12.598;2023-10-19T04:28:46;16.05;;;7.35;;
64653;SDS011;51065;48.884;12.598;2023-10-19T04:31:14;15.90;;;7.22;;
64653;SDS011;51065;48.884;12.598;2023-10-19T04:33:41;18.10;;;8.40;;
64653;SDS011;51065;48.884;12.598;2023-10-19T04:36:10;18.15;;;8.05;;
64653;SDS011;51065;48.884;12.598;2023-10-19T04:38:37;15.55;;;7.60;;
64653;SDS011;51065;48.884;12.598;2023-10-19T04:41:06;16.65;;;6.97;;
64653;SDS011;51065;48.884;12.598;2023-10-19T04:43:34;16.00;;;7.32;;
64653;SDS011;51065;48.884;12.598;2023-10-19T04:48:33;16.02;;;7.45;;
64653;SDS011;51065;48.884;12.598;2023-10-19T04:51:00;17.00;;;7.72;;
64653;SDS011;51065;48.884;12.598;2023-10-19T04:53:26;18.48;;;8.25;;
64653;SDS011;51065;48.884;12.598;2023-10-19T04:55:52;15.80;;;8.27;;
64653;SDS011;51065;48.884;12.598;2023-10-19T04:58:17;15.88;;;7.50;;
64653;SDS011;51065;48.884;12.598;2023-10-19T05:00:43;16.85;;;7.85;;
64653;SDS011;51065;48.884;12.598;2023-10-19T05:03:08;17.35;;;7.85;;
64653;SDS011;51065;48.884;12.598;2023-10-19T05:05:34;16.15;;;8.10;;
64653;SDS011;51065;48.884;12.598;2023-10-19T05:08:03;17.55;;;8.00;;
64653;SDS011;51065;48.884;12.598;2023-10-19T05:10:29;18.27;;;7.90;;
64653;SDS011;51065;48.884;12.598;2023-10-19T05:12:54;19.63;;;9.32;;
64653;SDS011;51065;48.884;12.598;2023-10-19T05:15:20;17.95;;;8.20;;
64653;SDS011;51065;48.884;12.598;2023-10-19T05:17:45;16.75;;;8.80;;
64653;SDS011;51065;48.884;12.598;2023-10-19T05:20:11;17.02;;;8.75;;
64653;SDS011;51065;48.884;12.598;2023-10-19T05:22:37;16.88;;;8.65;;
64653;SDS011;51065;48.884;12.598;2023-10-19T05:25:02;17.80;;;8.43;;
64653;SDS011;51065;48.884;12.598;2023-10-19T05:27:31;16.90;;;8.57;;
64653;SDS011;51065;48.884;12.598;2023-10-19T05:29:57;17.10;;;8.25;;
64653;SDS011;51065;48.884;12.598;2023-10-19T05:32:22;17.20;;;8.20;;
64653;SDS011;51065;48.884;12.598;2023-10-19T05:34:49;18.30;;;7.85;;
64653;SDS011;51065;48.884;12.598;2023-10-19T05:37:14;16.30;;;8.25;;
64653;SDS011;51065;48.884;12.598;2023-10-19T05:39:41;16.35;;;8.23;;
64653;SDS011;51065;48.884;12.598;2023-10-19T05:42:07;18.08;;;8.30;;
64653;SDS011;51065;48.884;12.598;2023-10-19T05:44:32;18.27;;;8.77;;
64653;SDS011;51065;48.884;12.598;2023-10-19T05:46:59;17.00;;;8.65;;
64653;SDS011;51065;48.884;12.598;2023-10-19T05:49:25;17.13;;;8.38;;
64653;SDS011;51065;48.884;12.598;2023-10-19T05:51:51;17.30;;;8.48;;
64653;SDS011;51065;48.884;12.598;2023-10-19T05:54:16;16.50;;;8.10;;
64653;SDS011;51065;48.884;12.598;2023-10-19T05:56:42;20.13;;;8.98;;
64653;SDS011;51065;48.884;12.598;2023-10-19T05:59:08;17.23;;;8.65;;
64653;SDS011;51065;48.884;12.598;2023-10-19T06:01:35;17.58;;;8.68;;
64653;SDS011;51065;48.884;12.598;2023-10-19T06:04:02;18.02;;;8.63;;
64653;SDS011;51065;48.884;12.598;2023-10-19T06:06:28;17.63;;;8.80;;
64653;SDS011;51065;48.884;12.598;2023-10-19T06:08:54;19.17;;;8.85;;
64653;SDS011;51065;48.884;12.598;2023-10-19T06:11:20;19.90;;;9.00;;
64653;SDS011;51065;48.884;12.598;2023-10-19T06:13:46;17.75;;;8.63;;
64653;SDS011;51065;48.884;12.598;2023-10-19T06:16:12;19.95;;;9.40;;
64653;SDS011;51065;48.884;12.598;2023-10-19T06:18:39;17.73;;;8.40;;
64653;SDS011;51065;48.884;12.598;2023-10-19T06:21:04;17.58;;;8.85;;
64653;SDS011;51065;48.884;12.598;2023-10-19T06:23:30;19.20;;;9.05;;
64653;SDS011;51065;48.884;12.598;2023-10-19T06:25:59;18.05;;;8.65;;
64653;SDS011;51065;48.884;12.598;2023-10-19T06:28:28;18.27;;;8.27;;
64653;SDS011;51065;48.884;12.598;2023-10-19T06:30:56;18.23;;;9.10;;
64653;SDS011;51065;48.884;12.598;2023-10-19T06:33:22;18.70;;;8.60;;
64653;SDS011;51065;48.884;12.598;2023-10-19T06:35:48;19.20;;;8.65;;
64653;SDS011;51065;48.884;12.598;2023-10-19T06:38:16;18.15;;;8.50;;
64653;SDS011;51065;48.884;12.598;2023-10-19T06:40:42;17.52;;;9.27;;
64653;SDS011;51065;48.884;12.598;2023-10-19T06:43:07;17.67;;;8.73;;
64653;SDS011;51065;48.884;12.598;2023-10-19T06:45:33;16.75;;;8.50;;
64653;SDS011;51065;48.884;12.598;2023-10-19T06:47:58;19.17;;;9.05;;
64653;SDS011;51065;48.884;12.598;2023-10-19T06:50:28;18.77;;;9.13;;
64653;SDS011;51065;48.884;12.598;2023-10-19T06:52:55;16.45;;;8.55;;
64653;SDS011;51065;48.884;12.598;2023-10-19T06:55:20;17.05;;;8.20;;
64653;SDS011;51065;48.884;12.598;2023-10-19T06:57:52;19.48;;;9.15;;
64653;SDS011;51065;48.884;12.598;2023-10-19T07:00:19;16.52;;;7.88;;
64653;SDS011;51065;48.884;12.598;2023-10-19T07:02:47;16.60;;;8.43;;
64653;SDS011;51065;48.884;12.598;2023-10-19T07:05:14;17.42;;;8.68;;
64653;SDS011;51065;48.884;12.598;2023-10-19T07:07:43;19.05;;;9.18;;
64653;SDS011;51065;48.884;12.598;2023-10-19T07:10:11;16.70;;;8.93;;
64653;SDS011;51065;48.884;12.598;2023-10-19T07:12:38;17.90;;;9.07;;
64653;SDS011;51065;48.884;12.598;2023-10-19T07:15:06;17.95;;;9.20;;
64653;SDS011;51065;48.884;12.598;2023-10-19T07:17:36;16.40;;;8.27;;
64653;SDS011;51065;48.884;12.598;2023-10-19T07:20:02;16.25;;;8.68;;
64653;SDS011;51065;48.884;12.598;2023-10-19T07:22:31;17.83;;;8.60;;
64653;SDS011;51065;48.884;12.598;2023-10-19T07:24:57;16.25;;;8.38;;
64653;SDS011;51065;48.884;12.598;2023-10-19T07:27:23;18.05;;;9.38;;
64653;SDS011;51065;48.884;12.598;2023-10-19T07:29:52;18.48;;;9.05;;
64653;SDS011;51065;48.884;12.598;2023-10-19T07:32:18;16.33;;;8.10;;
64653;SDS011;51065;48.884;12.598;2023-10-19T07:34:43;18.20;;;8.95;;
64653;SDS011;51065;48.884;12.598;2023-10-19T07:37:09;17.15;;;8.38;;
64653;SDS011;51065;48.884;12.598;2023-10-19T07:39:40;16.55;;;8.35;;
64653;SDS011;51065;48.884;12.598;2023-10-19T07:42:09;23.08;;;11.70;;
64653;SDS011;51065;48.884;12.598;2023-10-19T07:44:36;17.95;;;8.82;;
64653;SDS011;51065;48.884;12.598;2023-10-19T07:47:01;18.88;;;9.65;;
64653;SDS011;51065;48.884;12.598;2023-10-19T07:49:27;17.48;;;8.52;;
64653;SDS011;51065;48.884;12.598;2023-10-19T07:51:53;16.52;;;8.68;;
64653;SDS011;51065;48.884;12.598;2023-10-19T07:54:18;19.75;;;9.00;;
64653;SDS011;51065;48.884;12.598;2023-10-19T07:56:45;18.38;;;8.43;;
64653;SDS011;51065;48.884;12.598;2023-10-19T07:59:11;17.77;;;8.60;;
64653;SDS011;51065;48.884;12.598;2023-10-19T08:01:38;19.08;;;9.00;;
64653;SDS011;51065;48.884;12.598;2023-10-19T08:04:04;17.33;;;8.75;;
64653;SDS011;51065;48.884;12.598;2023-10-19T08:06:30;19.58;;;8.77;;
64653;SDS011;51065;48.884;12.598;2023-10-19T08:08:56;17.10;;;8.40;;
64653;SDS011;51065;48.884;12.598;2023-10-19T08:11:23;17.20;;;8.50;;
64653;SDS011;51065;48.884;12.598;2023-10-19T08:13:59;16.40;;;8.10;;
64653;SDS011;51065;48.884;12.598;2023-10-19T08:16:25;16.25;;;8.45;;
64653;SDS011;51065;48.884;12.598;2023-10-19T08:18:52;17.30;;;8.57;;
64653;SDS011;51065;48.884;12.598;2023-10-19T08:21:18;16.77;;;9.07;;
64653;SDS011;51065;48.884;12.598;2023-10-19T08:23:44;18.15;;;8.77;;
64653;SDS011;51065;48.884;12.598;2023-10-19T08:26:10;18.20;;;9.00;;
64653;SDS011;51065;48.884;12.598;2023-10-19T08:28:36;16.42;;;8.25;;
64653;SDS011;51065;48.884;12.598;2023-10-19T08:31:02;15.07;;;7.93;;
64653;SDS011;51065;48.884;12.598;2023-10-19T08:33:30;17.30;;;8.75;;
64653;SDS011;51065;48.884;12.598;2023-10-19T08:35:58;18.25;;;9.15;;
64653;SDS011;51065;48.884;12.598;2023-10-19T08:38:25;15.98;;;8.30;;
64653;SDS011;51065;48.884;12.598;2023-10-19T08:40:51;15.60;;;8.00;;
64653;SDS011;51065;48.884;12.598;2023-10-19T08:43:19;17.85;;;8.63;;
64653;SDS011;51065;48.884;12.598;2023-10-19T08:45:46;15.88;;;8.35;;
64653;SDS011;51065;48.884;12.598;2023-10-19T08:48:12;16.05;;;8.90;;
64653;SDS011;51065;48.884;12.598;2023-10-19T08:50:38;17.00;;;8.38;;
64653;SDS011;51065;48.884;12.598;2023-10-19T08:53:06;16.67;;;8.40;;
64653;SDS011;51065;48.884;12.598;2023-10-19T08:55:39;16.73;;;8.43;;
64653;SDS011;51065;48.884;12.598;2023-10-19T08:58:05;15.85;;;7.80;;
64653;SDS011;51065;48.884;12.598;2023-10-19T09:00:42;16.23;;;8.45;;
64653;SDS011;51065;48.884;12.598;2023-10-19T09:03:19;16.20;;;8.82;;
64653;SDS011;51065;48.884;12.598;2023-10-19T09:05:46;17.65;;;8.20;;
64653;SDS011;51065;48.884;12.598;2023-10-19T09:08:15;17.88;;;8.57;;
64653;SDS011;51065;48.884;12.598;2023-10-19T09:10:43;16.73;;;8.25;;
64653;SDS011;51065;48.884;12.598;2023-10-19T09:13:12;16.73;;;8.17;;
64653;SDS011;51065;48.884;12.598;2023-10-19T09:15:40;15.85;;;8.52;;
64653;SDS011;51065;48.884;12.598;2023-10-19T09:20:49;19.88;;;9.55;;
64653;SDS011;51065;48.884;12.598;2023-10-19T09:23:32;17.60;;;9.23;;
64653;SDS011;51065;48.884;12.598;2023-10-19T09:25:59;18.85;;;9.75;;
64653;SDS011;51065;48.884;12.598;2023-10-19T09:28:28;17.60;;;9.32;;
64653;SDS011;51065;48.884;12.598;2023-10-19T09:30:54;17.73;;;9.00;;
64653;SDS011;51065;48.884;12.598;2023-10-19T09:33:21;18.95;;;9.30;;
64653;SDS011;51065;48.884;12.598;2023-10-19T09:35:49;19.02;;;9.48;;
64653;SDS011;51065;48.884;12.598;2023-10-19T09:38:19;18.15;;;9.68;;
64653;SDS011;51065;48.884;12.598;2023-10-19T09:40:50;18.42;;;8.90;;
64653;SDS011;51065;48.884;12.598;2023-10-19T09:43:37;17.25;;;9.02;;
64653;SDS011;51065;48.884;12.598;2023-10-19T09:46:10;18.55;;;8.90;;
64653;SDS011;51065;48.884;12.598;2023-10-19T09:48:47;18.33;;;9.30;;
64653;SDS011;51065;48.884;12.598;2023-10-19T09:51:13;19.70;;;8.95;;
64653;SDS011;51065;48.884;12.598;2023-10-19T09:53:41;17.10;;;8.98;;
64653;SDS011;51065;48.884;12.598;2023-10-19T09:56:17;17.15;;;8.88;;
64653;SDS011;51065;48.884;12.598;2023-10-19T09:58:47;16.80;;;8.80;;
64653;SDS011;51065;48.884;12.598;2023-10-19T10:01:16;18.70;;;8.27;;
64653;SDS011;51065;48.884;12.598;2023-10-19T10:03:45;24.90;;;10.20;;
64653;SDS011;51065;48.884;12.598;2023-10-19T10:06:12;20.75;;;10.07;;
64653;SDS011;51065;48.884;12.598;2023-10-19T10:08:40;18.02;;;9.98;;
64653;SDS011;51065;48.884;12.598;2023-10-19T10:11:14;19.02;;;9.65;;
64653;SDS011;51065;48.884;12.598;2023-10-19T10:13:45;18.17;;;8.82;;
64653;SDS011;51065;48.884;12.598;2023-10-19T10:16:16;17.13;;;8.63;;
64653;SDS011;51065;48.884;12.598;2023-10-19T10:18:45;17.98;;;9.32;;
64653;SDS011;51065;48.884;12.598;2023-10-19T10:21:20;16.67;;;8.90;;
64653;SDS011;51065;48.884;12.598;2023-10-19T10:23:48;16.80;;;8.88;;
64653;SDS011;51065;48.884;12.598;2023-10-19T10:26:31;18.58;;;8.85;;
64653;SDS011;51065;48.884;12.598;2023-10-19T10:36:23;15.35;;;8.43;;
64653;SDS011;51065;48.884;12.598;2023-10-19T10:38:51;17.38;;;8.95;;
64653;SDS011;51065;48.884;12.598;2023-10-19T10:41:44;16.90;;;8.68;;
64653;SDS011;51065;48.884;12.598;2023-10-19T10:44:35;19.13;;;9.07;;
64653;SDS011;51065;48.884;12.598;2023-10-19T10:47:02;20.85;;;10.35;;
64653;SDS011;51065;48.884;12.598;2023-10-19T10:49:57;19.20;;;8.98;;
64653;SDS011;51065;48.884;12.598;2023-10-19T10:52:32;18.63;;;8.68;;
64653;SDS011;51065;48.884;12.598;2023-10-19T10:55:06;16.90;;;8.38;;
64653;SDS011;51065;48.884;12.598;2023-10-19T10:57:34;17.23;;;8.15;;
64653;SDS011;51065;48.884;12.598;2023-10-19T11:00:00;18.17;;;8.88;;
64653;SDS011;51065;48.884;12.598;2023-10-19T11:05:26;17.52;;;10.10;;
64653;SDS011;51065;48.884;12.598;2023-10-19T11:08:05;18.00;;;9.48;;
64653;SDS011;51065;48.884;12.598;2023-10-19T11:10:32;17.38;;;9.00;;
64653;SDS011;51065;48.884;12.598;2023-10-19T11:13:05;18.13;;;9.20;;
64653;SDS011;51065;48.884;12.598;2023-10-19T11:15:32;18.20;;;9.60;;
64653;SDS011;51065;48.884;12.598;2023-10-19T11:17:58;18.02;;;8.85;;
64653;SDS011;51065;48.884;12.598;2023-10-19T11:20:25;18.67;;;8.63;;
64653;SDS011;51065;48.884;12.598;2023-10-19T11:22:52;17.98;;;8.90;;
64653;SDS011;51065;48.884;12.598;2023-10-19T11:25:25;17.88;;;9.77;;
64653;SDS011;51065;48.884;12.598;2023-10-19T11:27:53;17.95;;;8.48;;
64653;SDS011;51065;48.884;12.598;2023-10-19T11:30:25;17.55;;;8.70;;
64653;SDS011;51065;48.884;12.598;2023-10-19T11:32:53;17.48;;;8.90;;
64653;SDS011;51065;48.884;12.598;2023-10-19T11:35:22;17.55;;;9.13;;
64653;SDS011;51065;48.884;12.598;2023-10-19T11:37:53;16.83;;;8.98;;
64653;SDS011;51065;48.884;12.598;2023-10-19T11:40:21;17.30;;;8.88;;
64653;SDS011;51065;48.884;12.598;2023-10-19T11:42:48;15.93;;;8.55;;
64653;SDS011;51065;48.884;12.598;2023-10-19T11:45:14;16.55;;;8.75;;
64653;SDS011;51065;48.884;12.598;2023-10-19T11:47:41;18.08;;;9.32;;
64653;SDS011;51065;48.884;12.598;2023-10-19T11:50:08;18.38;;;8.95;;
64653;SDS011;51065;48.884;12.598;2023-10-19T11:52:37;18.73;;;10.00;;
64653;SDS011;51065;48.884;12.598;2023-10-19T11:55:03;17.55;;;8.75;;
64653;SDS011;51065;48.884;12.598;2023-10-19T11:57:30;18.25;;;8.65;;
64653;SDS011;51065;48.884;12.598;2023-10-19T11:59:56;17.55;;;9.27;;
64653;SDS011;51065;48.884;12.598;2023-10-19T12:02:22;16.60;;;8.82;;
64653;SDS011;51065;48.884;12.598;2023-10-19T12:04:47;18.38;;;9.07;;
64653;SDS011;51065;48.884;12.598;2023-10-19T12:07:13;19.20;;;9.48;;
64653;SDS011;51065;48.884;12.598;2023-10-19T12:09:39;18.95;;;9.68;;
64653;SDS011;51065;48.884;12.598;2023-10-19T12:12:06;18.67;;;9.30;;
64653;SDS011;51065;48.884;12.598;2023-10-19T12:14:34;18.33;;;9.45;;
64653;SDS011;51065;48.884;12.598;2023-10-19T12:17:01;15.27;;;8.18;;
64653;SDS011;51065;48.884;12.598;2023-10-19T12:19:30;19.05;;;10.52;;
64653;SDS011;51065;48.884;12.598;2023-10-19T12:21:56;17.63;;;8.65;;
64653;SDS011;51065;48.884;12.598;2023-10-19T12:24:22;17.25;;;8.90;;
64653;SDS011;51065;48.884;12.598;2023-10-19T12:26:48;17.20;;;9.10;;
64653;SDS011;51065;48.884;12.598;2023-10-19T12:29:15;17.75;;;8.80;;
64653;SDS011;51065;48.884;12.598;2023-10-19T12:31:42;16.67;;;8.68;;
64653;SDS011;51065;48.884;12.598;2023-10-19T12:34:08;17.02;;;8.70;;
64653;SDS011;51065;48.884;12.598;2023-10-19T12:36:36;16.63;;;8.73;;
64653;SDS011;51065;48.884;12.598;2023-10-19T12:39:03;17.27;;;8.85;;
64653;SDS011;51065;48.884;12.598;2023-10-19T12:41:33;17.55;;;8.80;;
64653;SDS011;51065;48.884;12.598;2023-10-19T12:43:58;17.73;;;9.05;;
64653;SDS011;51065;48.884;12.598;2023-10-19T12:46:27;16.58;;;8.98;;
64653;SDS011;51065;48.884;12.598;2023-10-19T12:48:54;17.05;;;8.65;;
64653;SDS011;51065;48.884;12.598;2023-10-19T12:51:23;17.45;;;9.10;;
64653;SDS011;51065;48.884;12.598;2023-10-19T12:53:52;16.02;;;8.45;;
64653;SDS011;51065;48.884;12.598;2023-10-19T12:56:19;18.73;;;9.70;;
64653;SDS011;51065;48.884;12.598;2023-10-19T12:58:45;17.85;;;9.25;;
64653;SDS011;51065;48.884;12.598;2023-10-19T13:01:13;18.58;;;10.38;;
64653;SDS011;51065;48.884;12.598;2023-10-19T13:03:43;17.77;;;9.13;;
64653;SDS011;51065;48.884;12.598;2023-10-19T13:06:11;19.80;;;9.98;;
64653;SDS011;51065;48.884;12.598;2023-10-19T13:08:40;19.17;;;9.75;;
64653;SDS011;51065;48.884;12.598;2023-10-19T13:11:07;18.02;;;9.18;;
64653;SDS011;51065;48.884;12.598;2023-10-19T13:13:33;17.23;;;9.15;;
64653;SDS011;51065;48.884;12.598;2023-10-19T13:16:01;17.48;;;9.10;;
64653;SDS011;51065;48.884;12.598;2023-10-19T13:18:30;18.17;;;9.77;;
64653;SDS011;51065;48.884;12.598;2023-10-19T13:20:59;17.55;;;9.68;;
64653;SDS011;51065;48.884;12.598;2023-10-19T13:23:29;19.38;;;10.93;;
64653;SDS011;51065;48.884;12.598;2023-10-19T13:25:58;17.60;;;9.52;;
64653;SDS011;51065;48.884;12.598;2023-10-19T13:28:42;17.60;;;9.40;;
64653;SDS011;51065;48.884;12.598;2023-10-19T13:31:12;19.67;;;10.90;;
64653;SDS011;51065;48.884;12.598;2023-10-19T13:33:41;18.50;;;9.40;;
64653;SDS011;51065;48.884;12.598;2023-10-19T13:36:08;21.67;;;12.45;;
64653;SDS011;51065;48.884;12.598;2023-10-19T13:38:35;28.85;;;17.05;;
64653;SDS011;51065;48.884;12.598;2023-10-19T13:41:04;20.55;;;11.32;;
64653;SDS011;51065;48.884;12.598;2023-10-19T13:43:34;18.42;;;9.55;;
64653;SDS011;51065;48.884;12.598;2023-10-19T13:46:00;17.23;;;9.43;;
64653;SDS011;51065;48.884;12.598;2023-10-19T13:48:27;17.95;;;9.00;;
64653;SDS011;51065;48.884;12.598;2023-10-19T13:50:52;17.13;;;10.52;;
64653;SDS011;51065;48.884;12.598;2023-10-19T13:53:25;19.35;;;10.90;;
64653;SDS011;51065;48.884;12.598;2023-10-19T13:55:51;18.35;;;9.68;;
64653;SDS011;51065;48.884;12.598;2023-10-19T13:58:17;16.60;;;8.90;;
64653;SDS011;51065;48.884;12.598;2023-10-19T14:00:43;15.50;;;8.38;;
64653;SDS011;51065;48.884;12.598;2023-10-19T14:03:10;18.33;;;8.98;;
64653;SDS011;51065;48.884;12.598;2023-10-19T14:05:42;18.98;;;9.80;;
64653;SDS011;51065;48.884;12.598;2023-10-19T14:08:12;18.08;;;9.32;;
64653;SDS011;51065;48.884;12.598;2023-10-19T14:10:38;16.15;;;8.48;;
64653;SDS011;51065;48.884;12.598;2023-10-19T14:13:06;17.73;;;8.73;;
64653;SDS011;51065;48.884;12.598;2023-10-19T14:15:32;18.15;;;8.05;;
64653;SDS011;51065;48.884;12.598;2023-10-19T14:17:59;17.45;;;8.45;;
64653;SDS011;51065;48.884;12.598;2023-10-19T14:20:25;16.30;;;8.55;;
64653;SDS011;51065;48.884;12.598;2023-10-19T14:22:53;18.38;;;8.95;;
64653;SDS011;51065;48.884;12.598;2023-10-19T14:25:19;15.73;;;7.85;;
64653;SDS011;51065;48.884;12.598;2023-10-19T14:27:47;15.75;;;8.10;;
64653;SDS011;51065;48.884;12.598;2023-10-19T14:30:15;17.60;;;8.73;;
64653;SDS011;51065;48.884;12.598;2023-10-19T14:32:45;15.80;;;7.55;;
64653;SDS011;51065;48.884;12.598;2023-10-19T14:35:14;17.88;;;8.55;;
64653;SDS011;51065;48.884;12.598;2023-10-19T14:37:42;17.40;;;8.32;;
64653;SDS011;51065;48.884;12.598;2023-10-19T14:40:10;16.08;;;8.50;;
64653;SDS011;51065;48.884;12.598;2023-10-19T14:42:39;15.83;;;8.30;;
64653;SDS011;51065;48.884;12.598;2023-10-19T14:45:08;28.83;;;18.13;;
64653;SDS011;51065;48.884;12.598;2023-10-19T14:47:37;24.92;;;14.90;;